Time;durP1;ratioP1;P1;durP2;ratioP2;P2;SDS_P1;SDS_P2;PMS_P1;PMS_P2;Temp;Humidity;BMP_temperature;BMP_pressure;BME280_temperature;BME280_humidity;BME280_pressure;Samples;Min_cycle;Max_cycle;Signal;HPM_P1;HPM_P2
2023/05/18 00:03:57;;;;;;;7.27;2.70;;;;;;;3.24;100.00;97348.69;10376011;28;20213;-62
2023/05/18 00:08:57;;;;;;;8.10;2.80;;;;;;;3.08;100.00;97355.72;10377069;28;20214;-62
2023/05/18 00:13:58;;;;;;;9.07;2.80;;;;;;;2.93;100.00;97354.94;10376398;28;20695;-62
2023/05/18 00:18:58;;;;;;;11.73;3.40;;;;;;;2.90;100.00;97355.13;10376441;28;20840;-60
2023/05/18 00:23:58;;;;;;;6.43;2.63;;;;;;;2.74;100.00;97357.78;10376477;28;20580;-59
2023/05/18 00:28:58;;;;;;;9.47;3.17;;;;;;;2.72;100.00;97368.22;10376373;28;20558;-60
2023/05/18 00:33:59;;;;;;;9.70;2.90;;;;;;;2.70;100.00;97367.50;10374709;28;20592;-58
2023/05/18 00:39:00;;;;;;;13.77;3.07;;;;;;;2.64;100.00;97370.44;10374601;28;20225;-62
2023/05/18 00:44:00;;;;;;;11.40;3.30;;;;;;;2.53;100.00;97378.84;10374046;28;20220;-62
2023/05/18 00:49:01;;;;;;;8.40;3.63;;;;;;;2.45;100.00;97384.44;10374064;28;20201;-62
2023/05/18 00:54:02;;;;;;;9.57;2.80;;;;;;;2.39;100.00;97387.41;10357156;28;20225;-62
2023/05/18 00:59:03;;;;;;;7.63;3.10;;;;;;;2.27;100.00;97386.34;10373690;28;20201;-62
2023/05/18 01:04:03;;;;;;;6.90;3.17;;;;;;;2.26;100.00;97389.03;10374141;28;20213;-62
2023/05/18 01:09:08;;;;;;;10.77;3.30;;;;;;;2.20;100.00;97402.28;10374678;28;20541;-62
2023/05/18 01:14:17;;;;;;;9.47;2.90;;;;;;;2.08;100.00;97394.31;10373762;28;20220;-62
2023/05/18 01:19:23;;;;;;;12.10;3.03;;;;;;;2.06;100.00;97403.91;10372649;28;20231;-62
2023/05/18 01:24:38;;;;;;;5.83;2.33;;;;;;;1.92;100.00;97394.34;10373807;28;20309;-62
2023/05/18 01:29:40;;;;;;;6.43;2.70;;;;;;;1.86;100.00;97399.03;10356121;28;20656;-62
2023/05/18 01:34:41;;;;;;;6.70;3.07;;;;;;;1.89;100.00;97404.03;10355995;28;20308;-61
2023/05/18 01:39:42;;;;;;;9.13;3.10;;;;;;;1.75;100.00;97407.38;10371936;28;20288;-61
2023/05/18 01:44:47;;;;;;;9.33;3.10;;;;;;;1.73;100.00;97399.72;10371547;28;20209;-61
2023/05/18 01:49:54;;;;;;;7.07;2.53;;;;;;;1.70;100.00;97406.78;10371733;28;20197;-62
2023/05/18 01:54:56;;;;;;;9.20;2.80;;;;;;;1.56;100.00;97402.38;10371184;28;20229;-62
2023/05/18 01:59:59;;;;;;;13.47;3.63;;;;;;;1.57;100.00;97404.03;10372970;28;20235;-61
2023/05/18 02:05:00;;;;;;;7.27;2.97;;;;;;;1.54;100.00;97405.03;10370960;28;20232;-61
2023/05/18 02:10:02;;;;;;;9.90;3.33;;;;;;;1.46;100.00;97408.97;10370798;28;20197;-61
2023/05/18 02:15:05;;;;;;;8.77;2.73;;;;;;;1.39;100.00;97416.19;10370707;28;20293;-61
2023/05/18 02:20:06;;;;;;;20.97;3.63;;;;;;;1.25;100.00;97415.16;10370608;28;20250;-61
2023/05/18 02:25:07;;;;;;;10.10;2.60;;;;;;;1.18;100.00;97424.16;10370997;28;20231;-61
2023/05/18 02:30:08;;;;;;;8.67;3.40;;;;;;;1.20;100.00;97422.31;10371292;28;20254;-59
2023/05/18 02:35:09;;;;;;;7.73;2.73;;;;;;;1.16;100.00;97415.66;10371354;28;20215;-61
2023/05/18 02:40:11;;;;;;;8.40;2.93;;;;;;;1.04;100.00;97421.44;10369867;28;20192;-61
2023/05/18 02:45:11;;;;;;;10.67;3.20;;;;;;;0.95;100.00;97417.63;10370829;28;20523;-61
2023/05/18 02:50:13;;;;;;;8.17;2.90;;;;;;;0.89;100.00;97423.09;10338795;28;20226;-62
2023/05/18 02:55:16;;;;;;;11.40;3.03;;;;;;;0.86;100.00;97431.00;10328429;28;20321;-60
2023/05/18 03:00:34;;;;;;;13.50;3.50;;;;;;;0.76;100.00;97438.34;10328724;28;20278;-61
2023/05/18 03:05:38;;;;;;;7.20;3.00;;;;;;;0.70;100.00;97434.34;10357688;28;20649;-60
2023/05/18 03:10:38;;;;;;;11.17;3.27;;;;;;;0.62;100.00;97431.31;10370368;28;20189;-61
2023/05/18 03:15:39;;;;;;;9.70;2.80;;;;;;;0.67;100.00;97438.81;10369850;28;20242;-61
2023/05/18 03:20:39;;;;;;;12.27;2.70;;;;;;;0.67;100.00;97444.81;10368941;28;20188;-61
2023/05/18 03:25:42;;;;;;;9.13;3.27;;;;;;;0.67;100.00;97444.81;10368182;28;20208;-61
2023/05/18 03:30:42;;;;;;;8.87;3.33;;;;;;;0.69;100.00;97437.84;10368403;28;20196;-61
2023/05/18 03:35:42;;;;;;;7.83;3.37;;;;;;;0.60;100.00;97443.44;10372736;28;20224;-60
2023/05/18 03:40:43;;;;;;;12.60;2.90;;;;;;;0.61;100.00;97447.69;10377665;28;20185;-60
2023/05/18 03:45:43;;;;;;;8.20;2.93;;;;;;;0.63;100.00;97445.03;10376596;28;20557;-59
2023/05/18 03:50:44;;;;;;;9.67;3.00;;;;;;;0.54;100.00;97446.34;10376103;28;20204;-60
2023/05/18 03:55:45;;;;;;;15.30;3.67;;;;;;;0.51;100.00;97449.06;10377337;28;20231;-60
2023/05/18 04:00:46;;;;;;;15.70;3.50;;;;;;;0.49;100.00;97456.03;10375385;28;20339;-61
2023/05/18 04:05:48;;;;;;;10.13;3.47;;;;;;;0.58;100.00;97457.31;10376834;28;20189;-62
2023/05/18 04:10:50;;;;;;;11.07;3.33;;;;;;;0.59;100.00;97464.16;10376373;28;20206;-61
2023/05/18 04:15:52;;;;;;;8.37;3.30;;;;;;;0.59;100.00;97467.56;10374761;28;20217;-61
2023/05/18 04:20:54;;;;;;;15.03;3.37;;;;;;;0.65;100.00;97474.97;10375983;28;20201;-61
2023/05/18 04:25:55;;;;;;;10.40;2.97;;;;;;;0.76;100.00;97474.44;10374919;28;20204;-61
2023/05/18 04:30:55;;;;;;;11.20;3.57;;;;;;;0.85;100.00;97473.16;10375966;28;20185;-61
2023/05/18 04:35:57;;;;;;;8.47;3.00;;;;;;;1.02;100.00;97465.38;10374658;28;20299;-61
2023/05/18 04:40:59;;;;;;;9.77;3.30;;;;;;;1.20;100.00;97460.22;10375530;28;20272;-62
2023/05/18 04:46:00;;;;;;;8.83;3.43;;;;;;;1.36;100.00;97458.50;10373487;28;20671;-61
2023/05/18 04:51:03;;;;;;;13.87;3.60;;;;;;;1.56;100.00;97465.19;10373749;28;20189;-61
2023/05/18 04:56:04;;;;;;;10.40;3.20;;;;;;;1.83;100.00;97466.38;10373784;28;20224;-62
2023/05/18 05:01:05;;;;;;;10.20;3.20;;;;;;;2.09;100.00;97465.75;10373804;28;20303;-62
2023/05/18 05:06:06;;;;;;;11.53;3.47;;;;;;;2.41;100.00;97470.06;10373274;28;20186;-62
2023/05/18 05:11:07;;;;;;;6.63;2.90;;;;;;;2.72;100.00;97460.53;10373237;28;20212;-61
2023/05/18 05:16:07;;;;;;;8.63;3.23;;;;;;;2.89;100.00;97456.94;10372895;28;20577;-60
2023/05/18 05:21:08;;;;;;;7.43;2.83;;;;;;;3.27;100.00;97457.25;10372658;28;20205;-60
2023/05/18 05:26:08;;;;;;;10.60;3.97;;;;;;;3.68;100.00;97451.31;10372746;28;20215;-62
2023/05/18 05:31:09;;;;;;;10.57;3.00;;;;;;;4.00;100.00;97451.06;10372290;28;20239;-62
2023/05/18 05:36:10;;;;;;;8.23;2.90;;;;;;;4.36;100.00;97446.19;10372436;28;20239;-62
2023/05/18 05:41:10;;;;;;;6.17;2.83;;;;;;;5.06;100.00;97448.47;10373143;28;20209;-62
2023/05/18 05:46:11;;;;;;;15.50;3.87;;;;;;;5.73;100.00;97449.97;10373647;28;20192;-62
2023/05/18 05:51:13;;;;;;;8.47;3.00;;;;;;;6.33;100.00;97431.88;10381025;22;20276;-83
2023/05/18 05:56:13;;;;;;;10.03;3.23;;;;;;;6.69;98.26;97412.72;10427905;22;20270;-65
2023/05/18 06:01:15;;;;;;;12.53;3.20;;;;;;;7.13;94.49;97394.66;10428822;28;20662;-66
2023/05/18 06:06:15;;;;;;;11.10;3.10;;;;;;;7.67;91.11;97398.28;10412117;28;20184;-66
2023/05/18 06:11:15;;;;;;;14.90;3.07;;;;;;;8.45;86.03;97378.13;10412042;28;20231;-67
2023/05/18 06:16:16;;;;;;;6.77;2.50;;;;;;;9.28;75.70;97297.94;10413058;28;20189;-67
2023/05/18 06:21:16;;;;;;;12.40;3.10;;;;;;;9.27;75.09;97332.06;10412997;28;20273;-65
2023/05/18 06:26:18;;;;;;;10.80;2.30;;;;;;;11.15;65.92;97240.88;10411307;28;20258;-68
2023/05/18 06:31:28;;;;;;;10.20;2.83;;;;;;;10.41;67.28;97280.06;10410939;28;20193;-68
2023/05/18 06:36:48;;;;;;;11.95;2.90;;;;;;;10.42;65.92;97276.50;10412222;28;20623;-67
2023/05/18 06:41:50;;;;;;;8.32;2.60;;;;;;;10.18;69.11;97334.53;10410699;28;20295;-67
2023/05/18 06:46:56;;;;;;;12.20;2.67;;;;;;;10.46;65.70;97292.75;10410536;28;20247;-68
2023/05/18 06:52:02;;;;;;;8.93;3.03;;;;;;;12.29;62.47;97283.16;10410094;28;20248;-68
2023/05/18 06:57:02;;;;;;;7.22;2.38;;;;;;;11.76;63.12;97291.84;10410317;28;20180;-68
2023/05/18 07:02:03;;;;;;;13.98;2.53;;;;;;;12.39;60.07;97246.28;10411600;28;20258;-68
2023/05/18 07:07:06;;;;;;;10.13;2.40;;;;;;;13.01;58.81;97246.09;10411243;28;20200;-68
2023/05/18 07:12:07;;;;;;;10.20;2.33;;;;;;;12.51;58.16;97244.22;10410758;28;20220;-68
2023/05/18 07:17:07;;;;;;;7.55;2.20;;;;;;;12.54;58.44;97262.31;10411149;28;20192;-68
2023/05/18 07:22:07;;;;;;;13.18;2.58;;;;;;;10.99;61.39;97278.25;10410999;28;20254;-69
2023/05/18 07:27:08;;;;;;;13.18;2.78;;;;;;;11.75;60.46;97288.41;10411049;28;20245;-68
2023/05/18 07:32:08;;;;;;;13.50;2.67;;;;;;;12.61;56.93;97229.16;10410534;28;20228;-68
2023/05/18 07:37:08;;;;;;;10.93;2.53;;;;;;;12.89;57.47;97246.53;10410993;28;20235;-69
2023/05/18 07:42:10;;;;;;;10.07;2.28;;;;;;;13.27;57.14;97260.97;10410478;28;20216;-68
2023/05/18 07:47:10;;;;;;;5.40;2.30;;;;;;;13.26;54.96;97224.28;10410416;28;20281;-67
2023/05/18 07:52:10;;;;;;;12.88;3.05;;;;;;;13.45;54.84;97221.41;10409985;28;20324;-67
2023/05/18 07:57:11;;;;;;;10.02;2.40;;;;;;;13.25;56.66;97251.63;10410448;28;20246;-67
2023/05/18 08:02:12;;;;;;;8.52;2.72;;;;;;;12.61;58.69;97304.56;10410119;28;20212;-67
2023/05/18 08:07:13;;;;;;;8.20;2.30;;;;;;;11.68;59.04;97287.34;10410026;28;20282;-67
2023/05/18 08:12:13;;;;;;;8.30;2.08;;;;;;;11.43;60.31;97294.16;10409899;28;20745;-68
2023/05/18 08:17:14;;;;;;;9.43;2.25;;;;;;;10.68;61.55;97307.31;10410066;28;20196;-67
2023/05/18 08:22:14;;;;;;;12.45;2.58;;;;;;;10.99;63.02;97341.16;10412647;28;20232;-67
2023/05/18 08:27:14;;;;;;;10.68;2.17;;;;;;;11.41;62.30;97320.53;10417166;28;20235;-67
2023/05/18 08:32:15;;;;;;;8.95;2.28;;;;;;;11.95;59.31;97270.75;10417226;28;20786;-67
2023/05/18 08:37:15;;;;;;;9.93;2.78;;;;;;;11.93;60.47;97312.09;10416758;28;20218;-67
2023/05/18 08:42:29;;;;;;;13.98;2.95;;;;;;;11.62;60.24;97295.81;10416560;28;20609;-67
2023/05/18 08:47:30;;;;;;;10.80;2.33;;;;;;;12.62;59.10;97299.16;10416584;28;20189;-67
2023/05/18 08:52:35;;;;;;;9.48;2.17;;;;;;;12.70;56.82;97251.06;10416158;28;20236;-67
2023/05/18 08:57:36;;;;;;;6.10;1.90;;;;;;;12.78;54.68;97206.38;10415992;28;20251;-67
2023/05/18 09:02:36;;;;;;;8.52;2.13;;;;;;;13.55;54.13;97218.63;10414528;28;20274;-67
2023/05/18 09:07:38;;;;;;;8.60;2.22;;;;;;;14.11;53.03;97210.91;10415548;28;20188;-67
2023/05/18 09:12:41;;;;;;;5.45;1.90;;;;;;;13.56;54.68;97228.19;10414273;28;20228;-67
2023/05/18 09:17:41;;;;;;;4.78;1.80;;;;;;;13.15;54.72;97223.59;10415514;28;20220;-67
2023/05/18 09:22:42;;;;;;;7.32;2.10;;;;;;;13.37;53.73;97214.34;10414876;28;20722;-67
2023/05/18 09:27:42;;;;;;;6.53;1.98;;;;;;;13.93;52.94;97199.72;10415049;28;20185;-67
2023/05/18 09:32:45;;;;;;;9.25;2.38;;;;;;;14.58;50.89;97175.06;10414169;28;20228;-67
2023/05/18 09:37:46;;;;;;;6.63;2.17;;;;;;;13.51;53.93;97212.06;10413539;28;20189;-67
2023/05/18 09:42:48;;;;;;;7.32;2.10;;;;;;;14.08;51.61;97180.44;10414487;28;20254;-67
2023/05/18 09:47:49;;;;;;;6.72;2.08;;;;;;;14.01;52.70;97210.25;10414178;28;20185;-67
2023/05/18 09:52:50;;;;;;;11.10;2.42;;;;;;;12.85;54.77;97225.00;10413833;28;20706;-68
2023/05/18 09:57:50;;;;;;;10.32;2.30;;;;;;;13.74;53.50;97225.41;10413651;28;20193;-67
2023/05/18 10:02:51;;;;;;;7.18;2.17;;;;;;;14.31;52.70;97237.72;10413592;28;20276;-68
2023/05/18 10:07:53;;;;;;;9.65;2.47;;;;;;;14.35;52.59;97212.69;10413335;28;20304;-68
2023/05/18 10:12:57;;;;;;;6.30;1.60;;;;;;;14.93;52.64;97237.09;10412896;28;20228;-67
2023/05/18 10:17:58;;;;;;;7.60;2.75;;;;;;;14.50;51.75;97197.00;10413208;28;20212;-67
2023/05/18 10:23:04;;;;;;;8.07;2.35;;;;;;;15.36;48.66;97149.63;10412587;28;20278;-68
2023/05/18 10:28:06;;;;;;;7.10;1.98;;;;;;;14.96;49.29;97148.84;10412678;28;20185;-68
2023/05/18 10:33:07;;;;;;;4.63;1.98;;;;;;;15.20;48.10;97129.41;10411231;28;20236;-68
2023/05/18 10:38:08;;;;;;;11.93;4.05;;;;;;;13.88;51.08;97177.34;10412184;28;20611;-67
2023/05/18 10:43:08;;;;;;;11.93;3.13;;;;;;;14.57;51.76;97199.78;10411713;28;20220;-68
2023/05/18 10:48:09;;;;;;;9.23;2.33;;;;;;;14.80;51.07;97187.50;10410422;28;20211;-67
2023/05/18 10:53:12;;;;;;;14.55;5.88;;;;;;;14.79;50.65;97190.31;10411598;28;20749;-67
2023/05/18 10:58:14;;;;;;;4.53;2.00;;;;;;;15.05;49.50;97163.66;10410468;28;20193;-67
2023/05/18 11:03:16;;;;;;;5.55;1.95;;;;;;;15.72;48.15;97159.56;10411228;28;20235;-67
2023/05/18 11:08:25;;;;;;;8.02;2.15;;;;;;;15.45;49.90;97176.75;10410288;28;20205;-67
2023/05/18 11:13:30;;;;;;;9.35;2.42;;;;;;;15.02;50.45;97176.38;10411155;28;20232;-67
2023/05/18 11:18:38;;;;;;;9.45;2.08;;;;;;;15.74;49.36;97175.22;10411081;28;20188;-68
2023/05/18 11:23:38;;;;;;;8.00;2.03;;;;;;;15.13;49.64;97158.34;10411183;28;20244;-67
2023/05/18 11:28:42;;;;;;;8.35;2.05;;;;;;;15.03;49.81;97149.81;10411064;28;20292;-67
2023/05/18 11:33:42;;;;;;;11.45;2.65;;;;;;;15.50;47.76;97130.34;10410518;28;20721;-67
2023/05/18 11:39:09;;;;;;;7.68;2.80;;;;;;;16.34;45.80;97100.34;10411102;28;20188;-67
2023/05/18 11:44:10;;;;;;;7.70;2.20;;;;;;;16.61;46.22;97113.09;10410323;28;20556;-68
2023/05/18 11:49:15;;;;;;;3.63;1.65;;;;;;;15.99;46.81;97101.91;10410908;28;20196;-68
2023/05/18 11:54:16;;;;;;;8.35;2.65;;;;;;;16.52;45.09;97088.56;10434937;22;20327;-62
2023/05/18 11:59:16;;;;;;;6.07;2.30;;;;;;;18.00;44.11;97120.78;10417028;28;20575;-63
2023/05/18 12:04:17;;;;;;;4.13;1.52;;;;;;;16.72;42.68;97030.59;10418046;28;20215;-62
2023/05/18 12:09:18;;;;;;;6.55;1.90;;;;;;;16.92;44.88;97100.47;10417750;28;20562;-60
2023/05/18 12:14:20;;;;;;;8.50;2.33;;;;;;;17.05;45.65;97118.28;10416460;28;20227;-62
2023/05/18 12:19:22;;;;;;;7.50;2.03;;;;;;;17.70;43.88;97091.78;10417156;28;20782;-62
2023/05/18 12:24:22;;;;;;;5.50;2.03;;;;;;;18.25;42.78;97076.06;10417458;28;20243;-61
2023/05/18 12:29:23;;;;;;;6.63;2.03;;;;;;;17.56;44.84;97119.19;10416937;28;20211;-64
2023/05/18 12:34:28;;;;;;;11.50;4.30;;;;;;;18.53;42.17;97068.03;10416711;28;20216;-62
2023/05/18 12:39:28;;;;;;;9.88;2.25;;;;;;;17.78;44.13;97098.78;10416868;28;20189;-62
2023/05/18 12:44:29;;;;;;;7.90;2.30;;;;;;;17.74;44.10;97092.22;10416211;28;20640;-62
2023/05/18 12:49:35;;;;;;;9.13;2.10;;;;;;;18.40;41.92;97053.91;10416532;28;20737;-63
2023/05/18 12:54:35;;;;;;;7.20;2.17;;;;;;;18.32;41.40;97033.66;10414563;28;20616;-63
2023/05/18 12:59:46;;;;;;;6.95;2.20;;;;;;;17.68;42.43;97046.13;10415907;28;20283;-62
2023/05/18 13:05:00;;;;;;;9.68;2.38;;;;;;;18.72;40.98;97036.44;10415745;28;20201;-62
2023/05/18 13:10:04;;;;;;;7.30;2.10;;;;;;;19.67;40.20;97054.13;10413727;28;20192;-63
2023/05/18 13:15:37;;;;;;;7.72;2.40;;;;;;;19.58;38.08;96987.88;10415433;28;20650;-63
2023/05/18 13:20:40;;;;;;;8.40;2.00;;;;;;;19.34;41.34;97062.91;10414751;28;20201;-63
2023/05/18 13:25:41;;;;;;;3.97;1.90;;;;;;;20.01;39.11;97023.00;10414949;28;20212;-63
2023/05/18 13:30:42;;;;;;;6.95;2.10;;;;;;;19.71;39.45;97024.28;10414445;28;20610;-62
2023/05/18 13:35:43;;;;;;;5.88;2.33;;;;;;;18.00;41.95;97028.81;10414581;28;20240;-62
2023/05/18 13:40:45;;;;;;;5.07;1.88;;;;;;;16.90;44.39;97075.19;10414228;28;20196;-63
2023/05/18 13:45:45;;;;;;;5.18;1.90;;;;;;;18.45;42.25;97076.16;10413993;28;20710;-63
2023/05/18 13:50:46;;;;;;;6.50;1.83;;;;;;;21.22;37.27;97026.72;10414067;28;20224;-63
2023/05/18 13:55:46;;;;;;;8.80;2.20;;;;;;;19.81;39.29;97031.03;10413305;28;20252;-62
2023/05/18 14:00:46;;;;;;;6.25;1.70;;;;;;;18.71;38.57;96960.50;10413740;28;20192;-63
2023/05/18 14:05:47;;;;;;;8.35;1.92;;;;;;;19.55;39.93;97038.00;10413229;28;20247;-63
2023/05/18 14:10:47;;;;;;;4.35;1.90;;;;;;;19.09;40.52;97044.09;10413237;28;20192;-65
2023/05/18 14:15:47;;;;;;;4.35;1.90;;;;;;;18.67;36.53;96930.09;10412954;28;20236;-64
2023/05/18 14:20:48;;;;;;;8.80;2.30;;;;;;;18.93;39.25;97005.47;10411892;28;20250;-63
2023/05/18 14:25:48;;;;;;;8.35;1.90;;;;;;;20.21;36.94;96991.84;10412687;28;20208;-64
2023/05/18 14:30:48;;;;;;;5.35;2.05;;;;;;;20.84;37.66;97027.59;10412350;28;20185;-63
2023/05/18 14:35:49;;;;;;;5.50;1.80;;;;;;;22.60;35.35;97007.91;10412490;28;20251;-63
2023/05/18 14:40:49;;;;;;;5.88;1.92;;;;;;;23.10;34.27;96982.78;10411923;28;20525;-63
2023/05/18 14:45:50;;;;;;;5.75;1.73;;;;;;;21.59;34.78;96954.88;10412001;28;20243;-63
2023/05/18 14:50:50;;;;;;;7.35;1.88;;;;;;;18.12;37.63;96909.75;10411939;28;20200;-63
2023/05/18 14:55:50;;;;;;;6.68;2.30;;;;;;;18.24;39.37;96991.38;10412139;28;20610;-63
2023/05/18 15:00:51;;;;;;;6.63;1.73;;;;;;;19.23;37.83;96974.88;10411818;28;20220;-64
2023/05/18 15:05:51;;;;;;;6.25;1.90;;;;;;;20.35;35.48;96942.03;10411178;28;20212;-65
2023/05/18 15:10:51;;;;;;;6.50;1.70;;;;;;;21.00;36.37;96981.00;10411498;28;20200;-63
2023/05/18 15:15:52;;;;;;;5.53;1.88;;;;;;;21.27;36.30;96984.28;10410757;28;20626;-63
2023/05/18 15:20:52;;;;;;;5.20;1.80;;;;;;;20.66;36.42;96972.41;10410875;28;20196;-64
2023/05/18 15:25:53;;;;;;;5.70;1.80;;;;;;;18.28;40.94;97013.84;10410825;28;20208;-63
2023/05/18 15:30:54;;;;;;;4.85;2.00;;;;;;;18.56;40.30;97005.78;10413153;28;20196;-64
2023/05/18 15:35:54;;;;;;;7.35;1.92;;;;;;;17.62;42.18;97031.81;10419272;28;20270;-62
2023/05/18 15:40:54;;;;;;;7.68;2.00;;;;;;;17.96;42.46;97059.41;10418957;28;20200;-64
2023/05/18 15:45:55;;;;;;;6.63;2.17;;;;;;;17.82;41.13;97005.47;10419187;28;20222;-62
2023/05/18 15:50:55;;;;;;;5.53;1.70;;;;;;;17.42;43.29;97042.25;10419164;28;20203;-64
2023/05/18 15:55:56;;;;;;;7.03;2.38;;;;;;;17.55;42.68;97032.75;10418173;28;20237;-64
2023/05/18 16:00:56;;;;;;;7.88;1.67;;;;;;;16.49;43.22;97020.16;10418197;28;20223;-63
2023/05/18 16:05:56;;;;;;;3.38;1.67;;;;;;;16.85;43.97;97041.31;10418013;28;20196;-64
2023/05/18 16:10:57;;;;;;;5.05;1.65;;;;;;;15.45;45.99;97034.19;10417726;28;20269;-63
2023/05/18 16:15:57;;;;;;;4.05;1.90;;;;;;;15.44;46.20;97048.41;10417600;28;20240;-63
2023/05/18 16:20:58;;;;;;;5.38;1.55;;;;;;;15.10;46.93;97055.78;10417453;28;20192;-63
2023/05/18 16:25:59;;;;;;;6.00;1.80;;;;;;;15.42;46.94;97060.94;10417167;28;20208;-63
2023/05/18 16:30:59;;;;;;;6.07;1.98;;;;;;;15.33;46.37;97053.09;10416055;28;20196;-63
2023/05/18 16:36:00;;;;;;;9.35;2.00;;;;;;;15.38;46.09;97035.94;10416588;28;20833;-63
2023/05/18 16:41:01;;;;;;;5.57;1.90;;;;;;;14.93;47.84;97062.16;10416339;28;20563;-64
2023/05/18 16:46:01;;;;;;;10.65;2.03;;;;;;;14.85;49.45;97114.97;10415787;28;20212;-63
2023/05/18 16:51:05;;;;;;;4.63;2.28;;;;;;;14.78;48.18;97072.66;10416343;28;20193;-63
2023/05/18 16:56:05;;;;;;;5.13;1.77;;;;;;;14.34;49.99;97102.97;10415917;28;20232;-63
2023/05/18 17:01:06;;;;;;;4.32;2.00;;;;;;;13.93;49.59;97066.22;10415912;28;20188;-62
2023/05/18 17:06:07;;;;;;;7.07;2.47;;;;;;;13.78;50.53;97095.03;10415843;28;20297;-62
2023/05/18 17:11:07;;;;;;;3.88;1.60;;;;;;;14.22;48.40;97070.06;10415382;28;20292;-62
2023/05/18 17:16:08;;;;;;;5.53;2.00;;;;;;;14.14;46.30;97012.97;10415229;28;20220;-63
2023/05/18 17:21:08;;;;;;;4.25;1.60;;;;;;;13.84;49.84;97088.28;10415044;28;20231;-62
2023/05/18 17:26:09;;;;;;;6.40;1.70;;;;;;;13.90;47.94;97048.09;10415212;28;20213;-62
2023/05/18 17:31:09;;;;;;;8.82;1.95;;;;;;;13.67;48.84;97061.97;10415241;28;20180;-63
2023/05/18 17:36:10;;;;;;;5.82;2.08;;;;;;;13.61;48.87;97067.91;10414368;28;20231;-63
2023/05/18 17:41:10;;;;;;;4.95;2.00;;;;;;;12.95;51.54;97114.41;10414548;28;20549;-62
2023/05/18 17:46:10;;;;;;;7.85;2.30;;;;;;;12.94;51.34;97123.28;10413880;28;20722;-63
2023/05/18 17:51:11;;;;;;;6.13;2.00;;;;;;;12.62;53.37;97151.94;10414036;28;20211;-64
2023/05/18 17:56:11;;;;;;;5.20;1.52;;;;;;;12.60;53.02;97147.81;10437284;22;20335;-66
2023/05/18 18:01:11;;;;;;;3.88;1.63;;;;;;;12.41;53.11;97139.22;10413453;28;20197;-66
2023/05/18 18:06:12;;;;;;;3.47;1.65;;;;;;;12.23;55.24;97183.94;10413826;28;20204;-66
2023/05/18 18:11:12;;;;;;;4.78;1.83;;;;;;;12.31;54.99;97175.28;10413036;28;20185;-66
2023/05/18 18:16:13;;;;;;;6.72;1.77;;;;;;;12.26;55.50;97191.50;10412786;28;20223;-66
2023/05/18 18:21:14;;;;;;;5.05;1.92;;;;;;;12.13;55.99;97186.69;10412340;28;20258;-66
2023/05/18 18:26:14;;;;;;;4.10;1.67;;;;;;;12.28;55.51;97186.09;10412373;28;20204;-66
2023/05/18 18:31:15;;;;;;;4.22;2.05;;;;;;;12.12;56.67;97202.59;10410939;28;20193;-66
2023/05/18 18:36:15;;;;;;;5.00;1.95;;;;;;;12.18;56.00;97188.84;10411770;28;20244;-65
2023/05/18 18:41:16;;;;;;;5.00;2.30;;;;;;;11.96;57.64;97226.94;10411788;28;20797;-65
2023/05/18 18:46:16;;;;;;;3.95;2.10;;;;;;;11.77;58.84;97241.00;10411405;28;20208;-65
2023/05/18 18:51:17;;;;;;;4.40;2.00;;;;;;;11.80;57.15;97217.09;10411385;28;20567;-65
2023/05/18 18:56:17;;;;;;;3.80;1.40;;;;;;;11.51;59.02;97246.19;10410911;28;20609;-65
2023/05/18 19:01:17;;;;;;;4.50;1.92;;;;;;;11.48;60.55;97275.34;10411179;28;20223;-65
2023/05/18 19:06:19;;;;;;;8.27;2.20;;;;;;;11.22;62.00;97287.38;10410333;28;20216;-65
2023/05/18 19:11:20;;;;;;;6.55;2.38;;;;;;;10.79;63.83;97320.25;10410703;28;20238;-65
2023/05/18 19:16:21;;;;;;;4.13;2.15;;;;;;;10.81;64.51;97328.81;10410791;28;20256;-66
2023/05/18 19:21:24;;;;;;;4.88;2.08;;;;;;;10.64;64.72;97343.47;10410553;28;20212;-64
2023/05/18 19:26:25;;;;;;;11.75;7.53;;;;;;;10.09;66.68;97359.75;10410473;28;20221;-65
2023/05/18 19:31:25;;;;;;;13.02;6.30;;;;;;;10.41;66.88;97369.13;10410303;28;20204;-65
2023/05/18 19:36:26;;;;;;;8.82;3.40;;;;;;;10.00;68.90;97384.13;10410247;28;20228;-65
2023/05/18 19:41:26;;;;;;;10.05;3.90;;;;;;;10.24;68.65;97378.47;10410003;28;20220;-65
2023/05/18 19:46:26;;;;;;;9.53;3.97;;;;;;;9.87;71.30;97397.47;10409926;28;20211;-65
2023/05/18 19:51:27;;;;;;;10.53;5.97;;;;;;;9.71;71.29;97373.59;10409879;28;20270;-65
2023/05/18 19:56:28;;;;;;;23.00;14.67;;;;;;;9.75;71.18;97381.03;10409972;28;20240;-65
2023/05/18 20:01:28;;;;;;;18.43;9.57;;;;;;;9.68;72.64;97385.19;10410500;28;20197;-65
2023/05/18 20:06:30;;;;;;;6.77;3.43;;;;;;;9.23;74.34;97394.25;10410138;28;20287;-66
2023/05/18 20:11:30;;;;;;;5.40;3.07;;;;;;;8.98;77.07;97410.38;10410108;28;20343;-64
2023/05/18 20:16:33;;;;;;;4.73;2.20;;;;;;;8.96;76.97;97388.75;10411350;28;20228;-64
2023/05/18 20:21:34;;;;;;;6.47;3.10;;;;;;;9.14;76.10;97375.91;10417553;28;20607;-65
2023/05/18 20:26:35;;;;;;;6.13;2.40;;;;;;;8.82;77.57;97389.91;10417497;28;20204;-65
2023/05/18 20:31:35;;;;;;;6.03;3.10;;;;;;;8.76;79.91;97404.31;10417326;28;20196;-65
2023/05/18 20:36:35;;;;;;;7.37;2.17;;;;;;;8.56;80.39;97396.34;10417304;28;20228;-65
2023/05/18 20:41:38;;;;;;;6.60;2.63;;;;;;;8.39;83.37;97407.31;10416839;28;20203;-65
2023/05/18 20:46:40;;;;;;;9.60;2.53;;;;;;;8.38;83.61;97392.63;10416619;28;20208;-64
2023/05/18 20:51:41;;;;;;;9.00;2.93;;;;;;;8.14;85.92;97406.69;10416838;28;20275;-66
2023/05/18 20:56:41;;;;;;;5.47;3.20;;;;;;;8.14;85.80;97401.47;10416056;28;20239;-65
2023/05/18 21:01:42;;;;;;;6.10;3.53;;;;;;;8.16;86.36;97403.97;10416408;28;20188;-65
2023/05/18 21:06:42;;;;;;;6.50;3.50;;;;;;;8.11;86.48;97400.91;10415588;28;20209;-66
2023/05/18 21:11:43;;;;;;;8.87;3.30;;;;;;;8.15;87.72;97408.38;10415863;28;20195;-65
2023/05/18 21:16:43;;;;;;;10.03;3.47;;;;;;;8.08;87.77;97398.53;10415626;28;20230;-65
2023/05/18 21:21:43;;;;;;;8.67;2.97;;;;;;;8.01;87.90;97395.63;10415338;28;20218;-65
2023/05/18 21:26:44;;;;;;;7.33;3.23;;;;;;;7.85;87.73;97386.38;10415274;28;20652;-67
2023/05/18 21:31:44;;;;;;;9.43;3.33;;;;;;;7.87;86.55;97378.44;10414354;28;20199;-66
2023/05/18 21:36:44;;;;;;;8.60;4.20;;;;;;;7.78;86.34;97377.41;10415220;28;20232;-66
2023/05/18 21:41:45;;;;;;;6.50;2.73;;;;;;;7.84;86.39;97374.31;10414599;28;20200;-67
2023/05/18 21:46:46;;;;;;;8.30;3.00;;;;;;;7.80;86.33;97367.66;10414314;28;20201;-66
2023/05/18 21:51:46;;;;;;;7.37;2.73;;;;;;;7.75;86.74;97380.25;10414197;28;20207;-67
2023/05/18 21:56:46;;;;;;;8.73;2.60;;;;;;;7.79;87.15;97375.63;10413779;28;20237;-66
2023/05/18 22:01:47;;;;;;;8.70;2.83;;;;;;;7.50;87.81;97382.19;10414096;28;20205;-66
2023/05/18 22:06:47;;;;;;;7.27;2.20;;;;;;;7.71;88.00;97385.84;10413589;28;20212;-66
2023/05/18 22:11:47;;;;;;;4.27;2.03;;;;;;;7.71;88.20;97383.25;10413597;28;20199;-66
2023/05/18 22:16:48;;;;;;;6.33;2.10;;;;;;;7.57;89.25;97381.72;10413296;28;20359;-66
2023/05/18 22:21:48;;;;;;;7.53;2.83;;;;;;;7.56;89.68;97380.88;10413072;28;20200;-67
2023/05/18 22:26:48;;;;;;;5.37;2.43;;;;;;;7.66;89.24;97378.38;10412693;28;20212;-66
2023/05/18 22:31:49;;;;;;;7.80;2.00;;;;;;;7.68;90.49;97385.13;10412579;28;20193;-66
2023/05/18 22:36:49;;;;;;;7.17;2.37;;;;;;;7.59;91.71;97380.63;10412470;28;20232;-67
2023/05/18 22:41:49;;;;;;;10.53;2.33;;;;;;;7.56;92.46;97387.88;10411730;28;20208;-67
2023/05/18 22:46:50;;;;;;;5.83;2.60;;;;;;;7.54;93.36;97381.97;10412258;28;20215;-65
2023/05/18 22:51:52;;;;;;;6.23;2.40;;;;;;;7.48;93.38;97378.88;10411922;28;20188;-65
2023/05/18 22:56:52;;;;;;;6.07;2.40;;;;;;;7.60;93.38;97378.88;10411852;28;20323;-66
2023/05/18 23:01:53;;;;;;;4.53;2.20;;;;;;;7.75;93.10;97379.41;10411743;28;20267;-67
2023/05/18 23:06:55;;;;;;;6.90;2.60;;;;;;;7.66;93.83;97387.03;10411604;28;20208;-66
2023/05/18 23:11:58;;;;;;;5.47;2.13;;;;;;;7.53;94.75;97375.09;10411666;28;20291;-66
2023/05/18 23:16:59;;;;;;;6.33;2.30;;;;;;;7.42;95.98;97378.53;10411157;28;20295;-66
2023/05/18 23:21:59;;;;;;;5.17;2.23;;;;;;;7.46;95.47;97374.75;10411267;28;20267;-66